Time;durP1;ratioP1;P1;durP2;ratioP2;P2;SDS_P1;SDS_P2;PMS_P1;PMS_P2;Temp;Humidity;BMP_temperature;BMP_pressure;BME280_temperature;BME280_humidity;BME280_pressure;Samples;Min_cycle;Max_cycle;Signal;HPM_P1;HPM_P2
2020/12/24 00:00:44;0.00;0.00;0.62;0.00;0.00;0.62;1.30;1.00;;;23.80;35.30;;;;;;2234277;62;20356;-62
2020/12/24 00:03:29;0.00;0.00;0.62;0.00;0.00;0.62;2.20;1.10;;;23.80;35.30;;;;;;2234476;62;20462;-63
2020/12/24 00:06:13;0.00;0.00;0.62;0.00;0.00;0.62;1.63;1.23;;;23.80;35.30;;;;;;2233837;62;20364;-63
2020/12/24 00:08:58;0.00;0.00;0.62;0.00;0.00;0.62;1.40;0.97;;;23.80;35.30;;;;;;2234335;62;20356;-63
2020/12/24 00:11:42;0.00;0.00;0.62;0.00;0.00;0.62;1.50;1.00;;;23.80;35.30;;;;;;2236880;62;20356;-63
2020/12/24 00:14:28;0.00;0.00;0.62;0.00;0.00;0.62;1.70;1.10;;;23.80;35.30;;;;;;2234418;62;20749;-65
2020/12/24 00:17:13;0.00;0.00;0.62;0.00;0.00;0.62;1.30;0.90;;;23.80;35.30;;;;;;2234238;62;20388;-63
2020/12/24 00:19:57;0.00;0.00;0.62;0.00;0.00;0.62;1.77;1.30;;;23.80;35.30;;;;;;2234369;62;20377;-62
2020/12/24 00:22:42;0.00;0.00;0.62;0.00;0.00;0.62;1.40;1.10;;;23.80;35.30;;;;;;2234413;62;20365;-63
2020/12/24 00:25:27;0.00;0.00;0.62;0.00;0.00;0.62;1.60;1.00;;;23.80;35.30;;;;;;2234370;62;20364;-64
2020/12/24 00:28:11;0.00;0.00;0.62;0.00;0.00;0.62;1.40;0.90;;;23.80;35.30;;;;;;2234310;62;20392;-64
2020/12/24 00:30:57;0.00;0.00;0.62;0.00;0.00;0.62;1.40;1.10;;;23.80;35.20;;;;;;2234031;62;20417;-64
2020/12/24 00:33:42;0.00;0.00;0.62;0.00;0.00;0.62;2.03;1.50;;;23.80;35.10;;;;;;2234371;62;20464;-63
2020/12/24 00:36:27;0.00;0.00;0.62;0.00;0.00;0.62;3.90;1.90;;;23.80;35.30;;;;;;2233761;62;20424;-66
2020/12/24 00:39:12;0.00;0.00;0.62;0.00;0.00;0.62;5.83;2.00;;;23.80;34.30;;;;;;2233820;62;20360;-66
2020/12/24 00:41:57;0.00;0.00;0.62;0.00;0.00;0.62;2.37;1.97;;;23.70;33.60;;;;;;2234136;62;20634;-65
2020/12/24 00:44:41;0.00;0.00;0.62;0.00;0.00;0.62;2.93;1.60;;;23.70;33.10;;;;;;2234148;62;20789;-65
2020/12/24 00:47:27;0.00;0.00;0.62;0.00;0.00;0.62;2.50;1.60;;;23.60;32.90;;;;;;2234317;62;20392;-66
2020/12/24 00:50:11;0.00;0.00;0.62;0.00;0.00;0.62;4.03;1.63;;;23.60;32.80;;;;;;2234251;62;20426;-65
2020/12/24 00:52:56;0.00;0.00;0.62;0.00;0.00;0.62;5.87;1.80;;;23.50;32.70;;;;;;2234337;62;20634;-65
2020/12/24 00:55:42;0.00;0.00;0.62;0.00;0.00;0.62;3.07;1.83;;;23.40;33.40;;;;;;2233987;62;20413;-67
2020/12/24 00:58:27;0.00;0.00;0.62;0.00;0.00;0.62;4.83;1.70;;;23.30;32.70;;;;;;2233734;62;20681;-64
2020/12/24 01:01:13;0.00;0.00;0.62;0.00;0.00;0.62;2.80;2.00;;;23.20;32.60;;;;;;2233684;62;20364;-65
2020/12/24 01:03:58;0.00;0.00;0.62;0.00;0.00;0.62;2.67;1.47;;;23.20;32.70;;;;;;2234133;62;20348;-66
2020/12/24 01:06:43;0.00;0.00;0.62;0.00;0.00;0.62;2.80;1.73;;;23.10;32.60;;;;;;2234386;62;20389;-64
2020/12/24 01:09:27;0.00;0.00;0.62;0.00;0.00;0.62;2.87;1.83;;;23.00;32.60;;;;;;2234344;62;20361;-65
2020/12/24 01:12:12;0.00;0.00;0.62;0.00;0.00;0.62;3.73;1.40;;;23.00;32.80;;;;;;2234127;62;20409;-62
2020/12/24 01:14:57;0.00;0.00;0.62;0.00;0.00;0.62;2.00;1.43;;;22.90;32.80;;;;;;2234134;62;20373;-63
2020/12/24 01:17:41;0.00;0.00;0.62;0.00;0.00;0.62;2.00;1.40;;;22.90;32.90;;;;;;2234397;62;20440;-66
2020/12/24 01:20:26;0.00;0.00;0.62;0.00;0.00;0.62;2.43;1.50;;;22.80;32.90;;;;;;2234197;62;20454;-65
2020/12/24 01:23:11;0.00;0.00;0.62;0.00;0.00;0.62;3.10;1.53;;;22.80;33.00;;;;;;2234131;62;20369;-65
2020/12/24 01:25:56;0.00;0.00;0.62;0.00;0.00;0.62;3.30;1.73;;;22.70;32.90;;;;;;2234195;62;20450;-62
2020/12/24 01:28:40;0.00;0.00;0.62;0.00;0.00;0.62;2.60;1.60;;;22.70;32.90;;;;;;2234399;62;20392;-63
2020/12/24 01:31:25;0.00;0.00;0.62;0.00;0.00;0.62;2.07;1.30;;;22.60;32.80;;;;;;2234224;62;20368;-66
2020/12/24 01:34:09;0.00;0.00;0.62;0.00;0.00;0.62;1.63;1.33;;;22.60;32.90;;;;;;2233914;62;20478;-67
2020/12/24 01:36:59;0.00;0.00;0.62;0.00;0.00;0.62;2.37;1.60;;;22.60;32.90;;;;;;2234033;62;20404;-63
2020/12/24 01:39:43;0.00;0.00;0.62;0.00;0.00;0.62;3.30;1.90;;;22.50;32.70;;;;;;2234286;62;20575;-66
2020/12/24 01:42:28;0.00;0.00;0.62;0.00;0.00;0.62;2.87;1.57;;;22.50;32.70;;;;;;2234119;62;20393;-65
2020/12/24 01:45:12;0.00;0.00;0.62;0.00;0.00;0.62;3.33;1.60;;;22.50;32.80;;;;;;2233889;62;20726;-66
2020/12/24 01:47:57;0.00;0.00;0.62;0.00;0.00;0.62;1.70;1.40;;;22.40;32.80;;;;;;2233972;62;20445;-66
2020/12/24 01:50:42;0.00;0.00;0.62;0.00;0.00;0.62;2.77;1.57;;;22.40;32.60;;;;;;2234202;62;20725;-67
2020/12/24 01:53:28;0.00;0.00;0.62;0.00;0.00;0.62;4.97;1.70;;;22.30;32.30;;;;;;2233911;62;20388;-64
2020/12/24 01:56:14;0.00;0.00;0.62;0.00;0.00;0.62;3.80;1.57;;;22.30;32.00;;;;;;2233997;62;20482;-63
2020/12/24 01:58:59;0.00;0.00;0.62;0.00;0.00;0.62;2.43;1.80;;;22.30;31.80;;;;;;2234033;62;20404;-66
2020/12/24 02:01:45;0.00;0.00;0.62;0.00;0.00;0.62;1.67;1.00;;;22.20;31.50;;;;;;2234159;62;20352;-63
2020/12/24 02:04:29;0.00;0.00;0.62;0.00;0.00;0.62;1.93;1.10;;;22.20;32.30;;;;;;2233913;62;20399;-64
2020/12/24 02:07:16;0.00;0.00;0.62;0.00;0.00;0.62;1.53;1.20;;;22.10;31.40;;;;;;2233948;62;20474;-64
2020/12/24 02:10:03;0.00;0.00;0.62;0.00;0.00;0.62;1.73;1.20;;;22.10;31.50;;;;;;2234167;62;20413;-64
2020/12/24 02:12:48;0.00;0.00;0.62;0.00;0.00;0.62;2.33;1.10;;;22.00;31.40;;;;;;2234085;62;20740;-67
2020/12/24 02:15:32;0.00;0.00;0.62;0.00;0.00;0.62;2.40;1.20;;;22.00;31.40;;;;;;2233782;62;20412;-63
2020/12/24 02:18:17;0.00;0.00;0.62;0.00;0.00;0.62;3.00;1.10;;;22.00;31.50;;;;;;2234039;62;20384;-66
2020/12/24 02:21:02;0.00;0.00;0.62;0.00;0.00;0.62;3.13;1.40;;;22.00;32.10;;;;;;2234192;62;20546;-67
2020/12/24 02:23:47;0.00;0.00;0.62;0.00;0.00;0.62;2.77;0.93;;;21.90;31.50;;;;;;2234025;62;20364;-64
2020/12/24 02:26:32;0.00;0.00;0.62;0.00;0.00;0.62;1.90;1.10;;;21.90;31.50;;;;;;2233959;62;20433;-64
2020/12/24 02:29:17;0.00;0.00;0.62;0.00;0.00;0.62;2.03;1.00;;;21.80;31.50;;;;;;2233826;62;20372;-67
2020/12/24 02:32:02;0.00;0.00;0.62;0.00;0.00;0.62;1.70;1.07;;;21.80;31.60;;;;;;2234170;62;20745;-63
2020/12/24 02:34:46;0.00;0.00;0.62;0.00;0.00;0.62;1.40;1.00;;;21.80;31.70;;;;;;2236213;62;20365;-67
2020/12/24 02:37:32;0.00;0.00;0.62;0.00;0.00;0.62;1.67;1.10;;;21.70;31.60;;;;;;2233787;62;20440;-67
2020/12/24 02:40:17;0.00;0.00;0.62;0.00;0.00;0.62;3.03;1.00;;;21.70;31.80;;;;;;2233928;62;20365;-66
2020/12/24 02:43:01;0.00;0.00;0.62;0.00;0.00;0.62;1.90;1.03;;;21.70;32.70;;;;;;2234114;62;20588;-65
2020/12/24 02:45:46;0.00;0.00;0.62;0.00;0.00;0.62;2.30;1.33;;;21.70;32.00;;;;;;2233962;62;20720;-64
2020/12/24 02:48:31;0.00;0.00;0.62;0.00;0.00;0.62;2.70;1.33;;;21.70;32.20;;;;;;2233820;62;20368;-67
2020/12/24 02:51:15;0.00;0.00;0.62;0.00;0.00;0.62;1.70;1.00;;;21.70;32.80;;;;;;2233832;62;20394;-63
2020/12/24 02:54:01;0.00;0.00;0.62;0.00;0.00;0.62;2.20;1.07;;;21.60;31.90;;;;;;2234019;62;20429;-64
2020/12/24 02:56:45;0.00;0.00;0.62;0.00;0.00;0.62;2.20;1.00;;;21.60;31.90;;;;;;2236136;62;20396;-63
2020/12/24 02:59:30;0.00;0.00;0.62;0.00;0.00;0.62;2.40;1.23;;;21.60;31.90;;;;;;2233804;62;20352;-63
2020/12/24 03:02:14;0.00;0.00;0.62;0.00;0.00;0.62;2.83;1.10;;;21.60;31.90;;;;;;2233824;62;20426;-66
2020/12/24 03:04:59;0.00;0.00;0.62;0.00;0.00;0.62;2.30;1.70;;;21.60;31.90;;;;;;2233865;62;20437;-66
2020/12/24 03:07:49;0.00;0.00;0.62;0.00;0.00;0.62;3.60;1.40;;;21.60;31.90;;;;;;2233807;62;20435;-63
2020/12/24 03:10:35;0.00;0.00;0.62;0.00;0.00;0.62;3.00;2.17;;;21.60;31.90;;;;;;2233832;62;20361;-64
2020/12/24 03:13:19;0.00;0.00;0.62;0.00;0.00;0.62;2.33;1.50;;;21.50;31.70;;;;;;2233735;62;20467;-67
2020/12/24 03:16:04;0.00;0.00;0.62;0.00;0.00;0.62;5.47;2.27;;;21.50;31.70;;;;;;2233961;62;20356;-63
2020/12/24 03:18:48;0.00;0.00;0.62;0.00;0.00;0.62;1.50;1.00;;;21.50;31.80;;;;;;2233817;62;20631;-65
2020/12/24 03:21:33;0.00;0.00;0.62;0.00;0.00;0.62;4.40;1.70;;;21.50;31.80;;;;;;2233732;62;20357;-63
2020/12/24 03:24:18;0.00;0.00;0.62;0.00;0.00;0.62;3.70;1.70;;;21.50;31.80;;;;;;2233349;62;20356;-62
2020/12/24 03:27:03;0.00;0.00;0.62;0.00;0.00;0.62;4.00;1.63;;;21.50;31.80;;;;;;2233014;62;20385;-67
2020/12/24 03:29:48;0.00;0.00;0.62;0.00;0.00;0.62;2.90;2.03;;;21.40;31.60;;;;;;2232977;62;20437;-63
2020/12/24 03:32:33;0.00;0.00;0.62;0.00;0.00;0.62;2.87;1.67;;;21.40;31.50;;;;;;2232955;62;20412;-64
2020/12/24 03:35:17;0.00;0.00;0.62;0.00;0.00;0.62;3.43;1.50;;;21.40;31.50;;;;;;2233041;62;20407;-66
2020/12/24 03:38:02;0.00;0.00;0.62;0.00;0.00;0.62;2.00;1.30;;;21.40;31.50;;;;;;2233330;62;20392;-66
2020/12/24 03:40:47;0.00;0.00;0.62;0.00;0.00;0.62;5.43;2.20;;;21.30;31.40;;;;;;2233230;62;20384;-64
2020/12/24 03:43:32;0.00;0.00;0.62;0.00;0.00;0.62;4.60;2.23;;;21.30;31.40;;;;;;2232861;62;20520;-65
2020/12/24 03:46:17;0.00;0.00;0.62;0.00;0.00;0.62;4.10;1.80;;;21.30;31.30;;;;;;2233028;62;20505;-66
2020/12/24 03:49:01;0.00;0.00;0.62;0.00;0.00;0.62;3.57;1.60;;;21.30;31.50;;;;;;2233210;62;20412;-65
2020/12/24 03:51:46;0.00;0.00;0.62;0.00;0.00;0.62;5.03;1.67;;;21.30;31.60;;;;;;2233128;62;20413;-67
2020/12/24 03:54:30;0.00;0.00;0.62;0.00;0.00;0.62;6.40;2.10;;;21.20;31.50;;;;;;2233079;62;20717;-66
2020/12/24 03:57:15;0.00;0.00;0.62;0.00;0.00;0.62;4.27;1.60;;;21.20;31.40;;;;;;2233280;62;20780;-63
2020/12/24 04:00:01;0.00;0.00;0.62;0.00;0.00;0.62;2.60;1.33;;;21.20;31.40;;;;;;2233067;62;20753;-65
2020/12/24 04:02:45;0.00;0.00;0.62;0.00;0.00;0.62;3.57;1.40;;;21.10;31.40;;;;;;2233145;62;20361;-66
2020/12/24 04:05:30;0.00;0.00;0.62;0.00;0.00;0.62;3.77;1.30;;;21.10;31.50;;;;;;2232918;62;20356;-68
2020/12/24 04:08:15;0.00;0.00;0.62;0.00;0.00;0.62;2.23;1.30;;;21.00;31.40;;;;;;2233268;62;20444;-63
2020/12/24 04:10:59;0.00;0.00;0.62;0.00;0.00;0.62;3.27;1.13;;;21.10;31.50;;;;;;2233154;62;20586;-64
2020/12/24 04:13:44;0.00;0.00;0.62;0.00;0.00;0.62;1.63;1.10;;;21.00;31.50;;;;;;2232947;62;20444;-63
2020/12/24 04:16:29;0.00;0.00;0.62;0.00;0.00;0.62;3.53;1.20;;;21.00;31.50;;;;;;2233473;62;20404;-65
2020/12/24 04:19:14;0.00;0.00;0.62;0.00;0.00;0.62;1.53;1.07;;;20.90;31.50;;;;;;2234456;62;20696;-63
2020/12/24 04:21:59;0.00;0.00;0.62;0.00;0.00;0.62;2.13;1.00;;;20.90;31.60;;;;;;2234729;62;20448;-64
2020/12/24 04:24:43;0.00;0.00;0.62;0.00;0.00;0.62;2.13;1.23;;;20.90;31.60;;;;;;2234158;62;20639;-66
2020/12/24 04:27:30;0.00;0.00;0.62;0.00;0.00;0.62;2.60;1.00;;;20.90;31.60;;;;;;2234154;62;20388;-63
2020/12/24 04:30:15;0.00;0.00;0.62;0.00;0.00;0.62;2.03;1.00;;;20.80;31.50;;;;;;2234173;62;20393;-63
2020/12/24 04:33:00;0.00;0.00;0.62;0.00;0.00;0.62;1.90;1.00;;;20.80;31.50;;;;;;2234457;62;20804;-65
2020/12/24 04:35:45;0.00;0.00;0.62;0.00;0.00;0.62;2.80;1.10;;;20.80;31.50;;;;;;2234173;62;20383;-64
2020/12/24 04:38:29;0.00;0.00;0.62;0.00;0.00;0.62;3.07;1.33;;;20.70;32.20;;;;;;2234277;62;20424;-66
2020/12/24 04:41:14;0.00;0.00;0.62;0.00;0.00;0.62;1.50;0.90;;;20.70;31.60;;;;;;2234535;62;20741;-66
2020/12/24 04:44:01;0.00;0.00;0.62;0.00;0.00;0.62;2.07;1.20;;;20.70;31.80;;;;;;2234256;62;20434;-67
2020/12/24 04:46:48;0.00;0.00;0.62;0.00;0.00;0.62;3.23;1.10;;;20.70;31.90;;;;;;2234225;62;20383;-67
2020/12/24 04:49:35;0.00;0.00;0.62;0.00;0.00;0.62;2.60;1.43;;;20.70;31.90;;;;;;2234319;62;20368;-65
2020/12/24 04:52:19;0.00;0.00;0.62;0.00;0.00;0.62;3.97;1.27;;;20.70;32.00;;;;;;2234444;62;20377;-64
2020/12/24 04:55:05;0.00;0.00;0.62;0.00;0.00;0.62;3.10;1.40;;;20.70;32.00;;;;;;2234175;62;20368;-64
2020/12/24 04:57:50;0.00;0.00;0.62;0.00;0.00;0.62;5.00;2.00;;;20.70;31.90;;;;;;2234144;62;20436;-67
2020/12/24 05:00:36;0.00;0.00;0.62;0.00;0.00;0.62;2.50;1.63;;;20.70;31.90;;;;;;2234235;62;20398;-63
2020/12/24 05:03:21;0.00;0.00;0.62;0.00;0.00;0.62;4.03;1.73;;;20.70;31.80;;;;;;2234495;62;20738;-65
2020/12/24 05:06:11;0.00;0.00;0.62;0.00;0.00;0.62;4.90;1.80;;;20.70;31.70;;;;;;2234186;62;20445;-67
2020/12/24 05:08:58;0.00;0.00;0.62;0.00;0.00;0.62;3.33;1.47;;;20.70;31.60;;;;;;2233808;62;20803;-65
2020/12/24 05:11:44;0.00;0.00;0.62;0.00;0.00;0.62;3.20;1.60;;;20.70;31.60;;;;;;2234132;62;20368;-66
2020/12/24 05:14:30;0.00;0.00;0.62;0.00;0.00;0.62;4.20;1.50;;;20.60;31.50;;;;;;2233914;62;20388;-63
2020/12/24 05:17:15;0.00;0.00;0.62;0.00;0.00;0.62;4.70;2.00;;;20.60;31.40;;;;;;2234275;62;20388;-64
2020/12/24 05:20:01;0.00;0.00;0.62;0.00;0.00;0.62;5.47;2.13;;;20.60;31.40;;;;;;2234267;62;20448;-63
2020/12/24 05:22:47;0.00;0.00;0.62;0.00;0.00;0.62;5.73;2.33;;;20.60;31.50;;;;;;2234189;62;20357;-64
2020/12/24 05:25:32;0.00;0.00;0.62;0.00;0.00;0.62;5.53;2.50;;;20.60;31.40;;;;;;2234114;62;20372;-68
2020/12/24 05:28:20;0.00;0.00;0.62;0.00;0.00;0.62;3.27;1.80;;;20.50;31.30;;;;;;2234108;62;20441;-66
2020/12/24 05:31:07;0.00;0.00;0.62;0.00;0.00;0.62;9.80;2.47;;;20.50;31.30;;;;;;2234148;62;20417;-64
2020/12/24 05:33:52;0.00;0.00;0.62;0.00;0.00;0.62;3.03;1.80;;;20.50;31.40;;;;;;2234045;62;20388;-66
2020/12/24 05:36:36;0.00;0.00;0.62;0.00;0.00;0.62;4.60;2.03;;;20.50;32.10;;;;;;2234218;62;20444;-65
2020/12/24 05:39:24;0.00;0.00;0.62;0.00;0.00;0.62;4.70;2.00;;;20.50;31.50;;;;;;2234147;62;20356;-66
2020/12/24 05:42:09;0.00;0.00;0.62;0.00;0.00;0.62;4.90;1.90;;;20.40;31.40;;;;;;2234064;62;20372;-64
2020/12/24 05:44:54;0.00;0.00;0.62;0.00;0.00;0.62;2.63;1.63;;;20.40;31.50;;;;;;2234108;62;20508;-66
2020/12/24 05:47:38;0.00;0.00;0.62;0.00;0.00;0.62;7.60;2.30;;;20.40;31.60;;;;;;2234291;62;20441;-68
2020/12/24 05:50:24;0.00;0.00;0.62;0.00;0.00;0.62;4.20;1.90;;;20.30;31.50;;;;;;2234033;62;20438;-64
2020/12/24 05:53:12;0.00;0.00;0.62;0.00;0.00;0.62;8.87;2.13;;;20.30;31.60;;;;;;2233946;62;20681;-66
2020/12/24 05:55:58;0.00;0.00;0.62;0.00;0.00;0.62;2.27;1.57;;;20.30;31.70;;;;;;2233902;62;20364;-65
2020/12/24 05:58:46;0.00;0.00;0.62;0.00;0.00;0.62;3.13;1.33;;;20.30;31.80;;;;;;2234253;62;20701;-65
2020/12/24 06:01:39;0.00;0.00;0.62;0.00;0.00;0.62;2.83;1.60;;;20.20;31.80;;;;;;2233965;62;20438;-65
2020/12/24 06:04:48;0.00;0.00;0.62;0.00;0.00;0.62;3.10;1.47;;;20.20;31.90;;;;;;2233704;62;20646;-67
2020/12/24 06:07:34;0.00;0.00;0.62;0.00;0.00;0.62;3.00;1.60;;;20.20;31.90;;;;;;2233919;62;20392;-66
2020/12/24 06:10:41;0.00;0.00;0.62;0.00;0.00;0.62;3.63;1.47;;;20.20;31.80;;;;;;2234258;62;20487;-63
2020/12/24 06:13:38;0.00;0.00;0.62;0.00;0.00;0.62;2.23;1.20;;;20.20;31.90;;;;;;2234193;62;20438;-66
2020/12/24 06:16:27;0.00;0.00;0.62;0.00;0.00;0.62;2.50;1.37;;;20.20;32.00;;;;;;2233972;62;20835;-64
2020/12/24 06:19:13;0.00;0.00;0.62;0.00;0.00;0.62;2.90;1.20;;;20.20;31.90;;;;;;2234019;62;20364;-64
2020/12/24 06:21:58;0.00;0.00;0.62;0.00;0.00;0.62;5.13;1.20;;;20.20;31.90;;;;;;2233973;62;20625;-64
2020/12/24 06:24:46;0.00;0.00;0.62;0.00;0.00;0.62;2.00;0.93;;;20.20;31.80;;;;;;2233974;62;20374;-67
2020/12/24 06:27:35;0.00;0.00;0.62;0.00;0.00;0.62;1.50;1.00;;;20.20;31.70;;;;;;2234017;62;20417;-66
2020/12/24 06:30:26;0.00;0.00;0.62;0.00;0.00;0.62;3.30;1.20;;;20.20;31.70;;;;;;2233987;62;20364;-66
2020/12/24 06:33:10;0.00;0.00;0.62;0.00;0.00;0.62;1.67;0.80;;;20.20;31.80;;;;;;2233926;62;20627;-66
2020/12/24 06:35:56;0.00;0.00;0.62;0.00;0.00;0.62;1.70;0.80;;;20.20;31.70;;;;;;2236278;62;20596;-65
2020/12/24 06:38:46;0.00;0.00;0.62;0.00;0.00;0.62;1.57;1.00;;;20.20;31.70;;;;;;2233658;62;20396;-64
2020/12/24 06:41:36;0.00;0.00;0.62;0.00;0.00;0.62;1.57;1.03;;;20.20;32.10;;;;;;2233850;62;20745;-66
2020/12/24 06:44:47;0.00;0.00;0.62;0.00;0.00;0.62;1.20;0.80;;;20.20;31.60;;;;;;2233770;62;20361;-67
2020/12/24 06:47:33;0.00;0.00;0.62;0.00;0.00;0.62;1.20;0.80;;;20.20;31.70;;;;;;2233812;62;20821;-64
2020/12/24 06:50:35;0.00;0.00;0.62;0.00;0.00;0.62;1.40;0.80;;;20.20;31.60;;;;;;2234043;62;20396;-67
2020/12/24 06:53:28;0.00;0.00;0.62;0.00;0.00;0.62;1.23;0.80;;;20.20;31.30;;;;;;2233821;62;20380;-64
2020/12/24 06:56:24;0.00;0.00;0.62;0.00;0.00;0.62;1.10;0.80;;;20.20;31.30;;;;;;2233784;62;20368;-62
2020/12/24 06:59:18;0.00;0.00;0.62;0.00;0.00;0.62;1.50;0.80;;;20.20;31.40;;;;;;2233875;62;20696;-66
2020/12/24 07:02:04;0.00;0.00;0.62;0.00;0.00;0.62;2.10;0.67;;;20.20;31.30;;;;;;2233439;62;20397;-66
2020/12/24 07:04:50;0.00;0.00;0.62;0.00;0.00;0.62;1.40;0.90;;;20.20;31.10;;;;;;2233822;62;20404;-66
2020/12/24 07:07:43;0.00;0.00;0.62;0.00;0.00;0.62;1.30;0.70;;;20.10;31.20;;;;;;2233898;62;20529;-65
2020/12/24 07:10:45;0.00;0.00;0.62;0.00;0.00;0.62;1.17;0.67;;;20.10;31.10;;;;;;2233853;62;20429;-67
2020/12/24 07:13:33;0.00;0.00;0.62;0.00;0.00;0.62;1.83;0.90;;;20.10;31.90;;;;;;2233864;62;20416;-63
2020/12/24 07:16:45;0.00;0.00;0.62;0.00;0.00;0.62;1.80;0.60;;;20.10;31.30;;;;;;2233668;62;20475;-64
2020/12/24 07:19:31;0.00;0.00;0.62;0.00;0.00;0.62;1.20;0.60;;;20.10;31.30;;;;;;2233777;62;20413;-65
2020/12/24 07:22:18;0.00;0.00;0.62;0.00;0.00;0.62;1.57;0.80;;;20.10;31.10;;;;;;2233822;62;20364;-63
2020/12/24 07:25:04;0.00;0.00;0.62;0.00;0.00;0.62;1.20;0.70;;;20.10;31.10;;;;;;2233691;62;20376;-64
2020/12/24 07:27:51;0.00;0.00;0.62;0.00;0.00;0.62;1.20;0.60;;;20.10;31.10;;;;;;2233914;62;20617;-64
2020/12/24 07:30:35;0.00;0.00;0.62;0.00;0.00;0.62;1.20;0.67;;;20.10;31.20;;;;;;2234048;62;20596;-66
2020/12/24 07:33:20;0.00;0.00;0.62;0.00;0.00;0.62;1.33;0.70;;;20.10;31.20;;;;;;2233771;62;20616;-62
2020/12/24 07:36:06;0.00;0.00;0.62;0.00;0.00;0.62;1.20;0.70;;;20.10;31.20;;;;;;2233719;62;20789;-67
2020/12/24 07:38:52;0.00;0.00;0.62;0.00;0.00;0.62;1.30;0.70;;;20.10;31.30;;;;;;2233886;62;20372;-64
2020/12/24 07:41:40;0.00;0.00;0.62;0.00;0.00;0.62;1.30;0.63;;;20.10;31.30;;;;;;2233861;62;20733;-65
2020/12/24 07:44:25;0.00;0.00;0.62;0.00;0.00;0.62;1.20;0.70;;;20.10;31.20;;;;;;2233559;62;20654;-63
2020/12/24 07:47:10;0.00;0.00;0.62;0.00;0.00;0.62;1.50;0.70;;;20.10;30.80;;;;;;2233338;62;20644;-64
2020/12/24 07:49:54;0.00;0.00;0.62;0.00;0.00;0.62;1.10;0.60;;;20.10;30.90;;;;;;2234288;62;20413;-65
2020/12/24 07:52:39;0.00;0.00;0.62;0.00;0.00;0.62;1.70;0.80;;;20.10;31.00;;;;;;2234432;62;20709;-66
2020/12/24 07:55:25;0.00;0.00;0.62;0.00;0.00;0.62;1.03;0.53;;;20.10;30.90;;;;;;2234394;62;20651;-63
2020/12/24 07:58:12;0.00;0.00;0.62;0.00;0.00;0.62;1.10;0.63;;;20.10;30.90;;;;;;2234472;62;20720;-63
2020/12/24 08:00:56;0.00;0.00;0.62;0.00;0.00;0.62;1.30;0.70;;;20.10;30.90;;;;;;2234500;62;20372;-65
2020/12/24 08:03:41;0.00;0.00;0.62;0.00;0.00;0.62;1.10;0.60;;;20.20;30.80;;;;;;2234334;62;20433;-63
2020/12/24 08:06:26;0.00;0.00;0.62;0.00;0.00;0.62;1.30;0.70;;;20.10;30.50;;;;;;2234139;62;20388;-62
2020/12/24 08:09:12;0.00;0.00;0.62;0.00;0.00;0.62;1.77;0.60;;;20.10;30.70;;;;;;2234265;62;20372;-62
2020/12/24 08:11:59;0.00;0.00;0.62;0.00;0.00;0.62;1.30;0.70;;;20.10;30.80;;;;;;2234474;62;20444;-63
2020/12/24 08:14:44;0.00;0.00;0.62;0.00;0.00;0.62;1.83;0.90;;;20.10;30.90;;;;;;2233937;62;20388;-63
2020/12/24 08:17:35;0.00;0.00;0.62;0.00;0.00;0.62;1.23;0.70;;;20.10;31.00;;;;;;2234020;62;20419;-65
2020/12/24 08:20:27;0.00;0.00;0.62;0.00;0.00;0.62;1.30;0.70;;;20.10;30.90;;;;;;2234242;62;20445;-63
2020/12/24 08:23:18;0.00;0.00;0.62;0.00;0.00;0.62;1.80;0.80;;;20.10;30.80;;;;;;2234339;62;20401;-62
2020/12/24 08:26:05;0.00;0.00;0.62;0.00;0.00;0.62;1.40;0.93;;;20.20;30.70;;;;;;2234092;62;20369;-66
2020/12/24 08:28:54;0.00;0.00;0.62;0.00;0.00;0.62;1.90;0.93;;;20.20;30.60;;;;;;2234106;62;20372;-65
2020/12/24 08:31:41;0.00;0.00;0.62;0.00;0.00;0.62;2.87;1.07;;;20.10;30.50;;;;;;2234120;62;20369;-70
2020/12/24 08:34:25;0.00;0.00;0.62;0.00;0.00;0.62;1.70;1.17;;;20.10;30.50;;;;;;2234319;62;20424;-68
2020/12/24 08:37:10;0.00;0.00;0.62;0.00;0.00;0.62;3.60;2.50;;;20.10;30.50;;;;;;2234097;62;20433;-66
2020/12/24 08:39:55;0.00;0.00;0.62;0.00;0.00;0.62;2.63;1.70;;;20.10;30.60;;;;;;2233751;62;20373;-66
2020/12/24 08:42:42;0.00;0.00;0.62;0.00;0.00;0.62;2.87;2.40;;;20.20;30.80;;;;;;2234111;62;20372;-63
2020/12/24 08:45:28;0.00;0.00;0.62;0.00;0.00;0.62;2.83;2.20;;;20.20;30.90;;;;;;2234226;62;20449;-67
2020/12/24 08:48:29;0.00;0.00;0.62;0.00;0.00;0.62;3.00;2.10;;;20.20;30.90;;;;;;2233964;62;20756;-66
2020/12/24 08:51:14;0.00;0.00;0.62;0.00;0.00;0.62;3.20;2.30;;;20.20;30.90;;;;;;2233992;62;20368;-64
2020/12/24 08:54:08;0.00;0.00;0.62;0.00;0.00;0.62;4.50;2.50;;;20.20;30.90;;;;;;2234056;62;20683;-65
2020/12/24 08:56:54;0.00;0.00;0.62;0.00;0.00;0.62;4.10;3.03;;;20.20;31.00;;;;;;2234235;62;20385;-63
2020/12/24 08:59:39;0.00;0.00;0.62;0.00;0.00;0.62;5.90;3.93;;;20.20;31.70;;;;;;2234243;62;20368;-63
2020/12/24 09:02:26;0.00;0.00;0.62;0.00;0.00;0.62;4.73;3.43;;;20.20;31.10;;;;;;2233734;62;20373;-65
2020/12/24 09:05:11;0.00;0.00;0.62;0.00;0.00;0.62;3.47;2.97;;;20.20;31.00;;;;;;2233777;62;20385;-64
2020/12/24 09:07:56;0.00;0.00;0.62;0.00;0.00;0.62;4.87;3.50;;;20.20;30.90;;;;;;2234239;62;20456;-63
2020/12/24 09:10:40;0.00;0.00;0.62;0.00;0.00;0.62;5.33;3.93;;;20.30;31.00;;;;;;2234210;62;20396;-63
2020/12/24 09:13:25;0.00;0.00;0.62;0.00;0.00;0.62;7.07;3.90;;;20.30;31.00;;;;;;2233902;62;20397;-64
2020/12/24 09:16:13;0.00;0.00;0.62;0.00;0.00;0.62;4.80;3.50;;;20.30;31.10;;;;;;2233833;62;20588;-63
2020/12/24 09:19:04;0.00;0.00;0.62;0.00;0.00;0.62;4.83;3.53;;;20.30;30.90;;;;;;2234269;62;20409;-64
2020/12/24 09:21:56;0.00;0.00;0.62;0.00;0.00;0.62;6.53;4.20;;;20.30;30.90;;;;;;2234121;62;20737;-63
2020/12/24 09:24:49;0.00;0.00;0.62;0.00;0.00;0.62;6.30;4.73;;;20.30;30.90;;;;;;2233658;62;20361;-64
2020/12/24 09:27:43;0.00;0.00;0.62;0.00;0.00;0.62;5.63;4.10;;;20.30;31.10;;;;;;2233873;62;20391;-65
2020/12/24 09:30:29;0.00;0.00;0.62;0.00;0.00;0.62;5.33;4.43;;;20.30;31.20;;;;;;2233888;62;20413;-65
2020/12/24 09:33:14;0.00;0.00;0.62;0.00;0.00;0.62;4.13;3.53;;;20.30;31.20;;;;;;2233747;62;20404;-65
2020/12/24 09:35:59;0.00;0.00;0.62;0.00;0.00;0.62;4.80;3.93;;;20.30;31.80;;;;;;2233732;62;20428;-64
2020/12/24 09:38:44;0.00;0.00;0.62;0.00;0.00;0.62;5.10;4.10;;;20.30;31.10;;;;;;2233849;62;20375;-64
2020/12/24 09:41:28;0.00;0.00;0.62;0.00;0.00;0.62;6.23;4.13;;;20.30;31.10;;;;;;2234119;62;20396;-65
2020/12/24 09:44:14;0.00;0.00;0.62;0.00;0.00;0.62;4.30;3.57;;;20.40;31.20;;;;;;2233660;62;20356;-63
2020/12/24 09:46:58;0.00;0.00;0.62;0.00;0.00;0.62;4.30;3.90;;;20.40;31.20;;;;;;2233516;62;20433;-63
2020/12/24 09:49:43;0.00;0.00;0.62;0.00;0.00;0.62;4.83;4.00;;;20.40;31.30;;;;;;2233893;62;20729;-64
2020/12/24 09:52:28;0.00;0.00;0.62;0.00;0.00;0.62;8.40;4.77;;;20.40;31.30;;;;;;2234044;62;20365;-62
2020/12/24 09:55:13;0.00;0.00;0.62;0.00;0.00;0.62;6.33;3.87;;;20.40;31.30;;;;;;2233555;62;20369;-64
2020/12/24 09:57:57;0.00;0.00;0.62;0.00;0.00;0.62;8.23;4.20;;;20.40;31.30;;;;;;2233869;62;20437;-65
2020/12/24 10:00:42;0.00;0.00;0.62;0.00;0.00;0.62;5.20;3.67;;;20.40;31.30;;;;;;2233685;62;20368;-65
2020/12/24 10:03:27;0.00;0.00;0.62;0.00;0.00;0.62;4.80;3.70;;;20.40;31.30;;;;;;2234024;62;20372;-65
2020/12/24 10:06:11;0.00;0.00;0.62;0.00;0.00;0.62;4.50;4.10;;;20.50;31.40;;;;;;2233690;62;20580;-66
2020/12/24 10:08:57;0.00;0.00;0.62;0.00;0.00;0.62;5.40;4.57;;;20.50;32.10;;;;;;2233775;62;20412;-63
2020/12/24 10:11:46;0.00;0.00;0.62;0.00;0.00;0.62;5.73;3.10;;;20.50;31.40;;;;;;2233814;62;20733;-65
2020/12/24 10:14:30;0.00;0.00;0.62;0.00;0.00;0.62;5.73;4.20;;;20.50;31.40;;;;;;2233816;62;20437;-67
2020/12/24 10:17:15;0.00;0.00;0.62;0.00;0.00;0.62;4.73;3.67;;;20.50;31.40;;;;;;2234027;62;20396;-64
2020/12/24 10:20:00;0.00;0.00;0.62;0.00;0.00;0.62;5.10;3.67;;;20.50;31.30;;;;;;2233790;62;20372;-65
2020/12/24 10:22:45;0.00;0.00;0.62;0.00;0.00;0.62;4.20;3.40;;;20.50;31.40;;;;;;2233840;62;20409;-64
2020/12/24 10:25:30;0.00;0.00;0.62;0.00;0.00;0.62;4.13;3.60;;;20.60;31.40;;;;;;2233848;62;20380;-63
2020/12/24 10:28:15;0.00;0.00;0.62;0.00;0.00;0.62;4.80;4.13;;;20.60;31.40;;;;;;2233721;62;20388;-62
2020/12/24 10:30:59;0.00;0.00;0.62;0.00;0.00;0.62;4.80;3.60;;;20.60;31.40;;;;;;2233665;62;20384;-63
2020/12/24 10:33:44;0.00;0.00;0.62;0.00;0.00;0.62;4.33;3.80;;;20.60;31.40;;;;;;2233754;62;20429;-64
2020/12/24 10:36:29;0.00;0.00;0.62;0.00;0.00;0.62;4.60;3.50;;;20.60;31.40;;;;;;2233758;62;20781;-64
2020/12/24 10:39:14;0.00;0.00;0.62;0.00;0.00;0.62;4.70;3.43;;;20.60;31.40;;;;;;2233725;62;20364;-66
2020/12/24 10:41:59;0.00;0.00;0.62;0.00;0.00;0.62;4.30;3.50;;;20.70;31.50;;;;;;2233759;62;20408;-66
2020/12/24 10:44:44;0.00;0.00;0.62;0.00;0.00;0.62;4.80;3.97;;;20.70;31.50;;;;;;2233340;62;20384;-63
2020/12/24 10:47:29;0.00;0.00;0.62;0.00;0.00;0.62;5.97;3.53;;;20.70;31.50;;;;;;2233936;62;20774;-64
2020/12/24 10:50:14;0.00;0.00;0.62;0.00;0.00;0.62;4.87;3.73;;;20.70;31.50;;;;;;2233690;62;20740;-66
2020/12/24 10:52:59;0.00;0.00;0.62;0.00;0.00;0.62;3.70;3.40;;;20.70;31.50;;;;;;2233565;62;20372;-62
2020/12/24 10:55:44;0.00;0.00;0.62;0.00;0.00;0.62;4.93;3.67;;;20.70;31.50;;;;;;2233773;62;20412;-63